London, Canada
Current Conditions -  °F | °C
As of 2:33 AM on Saturday 29 Nov 2014 (Local Time) from CYXU Reporting Station
Light Snow Light Snow  
Wind Chill: 13°   Ceiling: 700
Heat Index: 23°   Visibility: 10mi
Dew Point: 19°   Wind: 9mph
Humidity: 86%   Direction: 110°ESE
Pressure: 30.09"   Gusts: NA
Location:  42.99°N, 81.25°W
Report Text: CYXU 290733Z 11008KT 10SM -SN BKN007 OVC070 M05/M07 A3009 RMK SF6AC2 SLP206
Loading
Personal Weather Stations






























Interactive Weather Map New forecast layout! Learn more

10-Day Weather Forecast

Advertisements
Track Severe Weather on mobile